createdAt,value
2023-10-26T00:00:50.392Z,23.83
2023-10-26T00:01:52.680Z,22.50
2023-10-26T00:02:56.129Z,21.17
2023-10-26T00:03:58.772Z,20.33
2023-10-26T00:05:02.167Z,19.83
2023-10-26T00:06:06.092Z,19.00
2023-10-26T00:07:09.333Z,19.00
2023-10-26T00:08:11.548Z,19.00
2023-10-26T00:09:14.730Z,18.00
2023-10-26T00:10:17.250Z,18.00
2023-10-26T00:11:20.442Z,18.00
2023-10-26T00:12:22.806Z,18.00
2023-10-26T00:13:25.160Z,18.00
2023-10-26T00:14:28.397Z,18.83
2023-10-26T00:15:30.575Z,19.00
2023-10-26T00:16:33.782Z,19.00
2023-10-26T00:17:36.163Z,19.00
2023-10-26T00:18:39.456Z,19.00
2023-10-26T00:19:41.740Z,19.00
2023-10-26T00:20:46.580Z,19.00
2023-10-26T00:21:50.155Z,19.00
2023-10-26T00:22:53.301Z,19.83
2023-10-26T00:23:55.459Z,20.83
2023-10-26T00:24:58.657Z,22.50
2023-10-26T00:26:00.810Z,23.50
2023-10-26T00:27:04.093Z,25.50
2023-10-26T00:28:06.323Z,29.00
2023-10-26T00:29:09.501Z,30.83
2023-10-26T00:30:12.915Z,31.00
2023-10-26T00:31:16.277Z,32.17
2023-10-26T00:32:18.811Z,33.00
2023-10-26T00:33:22.070Z,34.67
2023-10-26T00:34:24.394Z,35.00
2023-10-26T00:35:27.604Z,35.00
2023-10-26T00:36:30.880Z,35.00
2023-10-26T00:37:35.460Z,34.67
2023-10-26T00:38:37.695Z,34.00
2023-10-26T00:39:40.899Z,33.50
2023-10-26T00:40:43.131Z,33.00
2023-10-26T00:41:46.263Z,33.00
2023-10-26T00:42:48.455Z,33.00
2023-10-26T00:43:52.694Z,33.83
2023-10-26T00:44:57.873Z,35.83
2023-10-26T00:46:01.351Z,36.00
2023-10-26T00:47:03.847Z,36.00
2023-10-26T00:48:08.137Z,38.83
2023-10-26T00:49:13.656Z,49.33
2023-10-26T00:50:17.087Z,52.17
2023-10-26T00:51:19.852Z,49.00
2023-10-26T00:52:24.239Z,48.00
2023-10-26T00:53:28.748Z,47.00
2023-10-26T00:54:32.155Z,46.50
2023-10-26T00:55:35.479Z,46.17
2023-10-26T00:56:38.249Z,48.00
2023-10-26T00:57:41.698Z,48.50
2023-10-26T00:58:44.360Z,47.50
2023-10-26T00:59:48.228Z,47.00
2023-10-26T01:00:51.081Z,46.00
2023-10-26T01:01:54.701Z,45.50
2023-10-26T01:02:57.075Z,45.00
2023-10-26T01:04:02.264Z,45.00
2023-10-26T01:05:05.197Z,44.00
2023-10-26T01:06:09.756Z,41.67
2023-10-26T01:07:11.975Z,39.33
2023-10-26T01:08:15.184Z,38.50
2023-10-26T01:09:19.094Z,37.50
2023-10-26T01:10:22.258Z,37.00
2023-10-26T01:11:24.644Z,37.00
2023-10-26T01:12:28.712Z,37.00
2023-10-26T01:13:31.787Z,37.67
2023-10-26T01:14:34.069Z,40.67
2023-10-26T01:15:37.313Z,42.50
2023-10-26T01:16:40.588Z,43.33
2023-10-26T01:17:43.864Z,43.67
2023-10-26T01:18:46.189Z,43.00
2023-10-26T01:19:50.051Z,42.67
2023-10-26T01:20:52.367Z,42.00
2023-10-26T01:21:57.523Z,41.67
2023-10-26T01:23:00.338Z,40.33
2023-10-26T01:24:03.560Z,41.00
2023-10-26T01:25:06.537Z,41.00
2023-10-26T01:26:09.594Z,41.50
2023-10-26T01:27:11.813Z,42.00
2023-10-26T01:28:15.044Z,42.00
2023-10-26T01:29:17.134Z,42.83
2023-10-26T01:30:19.369Z,48.00
2023-10-26T01:31:22.602Z,53.83
2023-10-26T01:32:27.521Z,61.33
2023-10-26T01:33:30.791Z,59.00
2023-10-26T01:34:33.094Z,57.33
2023-10-26T01:35:42.459Z,56.17
2023-10-26T01:36:44.806Z,54.33
2023-10-26T01:37:49.375Z,52.00
2023-10-26T01:38:51.566Z,49.33
2023-10-26T01:39:54.710Z,49.00
2023-10-26T01:40:56.863Z,49.50
2023-10-26T01:42:00.216Z,48.33
2023-10-26T01:43:02.411Z,46.33
2023-10-26T01:44:05.708Z,44.83
2023-10-26T01:45:09.670Z,43.83
2023-10-26T01:46:12.908Z,42.50
2023-10-26T01:47:15.100Z,40.83
2023-10-26T01:48:18.430Z,38.83
2023-10-26T01:49:20.861Z,38.00
2023-10-26T01:50:23.151Z,38.00
2023-10-26T01:51:26.414Z,38.00
2023-10-26T01:52:28.658Z,38.00
2023-10-26T01:53:33.267Z,38.00
2023-10-26T01:54:35.478Z,38.00
2023-10-26T01:55:38.694Z,38.00
2023-10-26T01:56:40.901Z,38.00
2023-10-26T01:57:44.054Z,38.83
2023-10-26T01:58:46.380Z,39.50
2023-10-26T01:59:49.547Z,40.50
2023-10-26T02:00:51.813Z,49.83
2023-10-26T02:01:55.028Z,61.33
2023-10-26T02:02:57.463Z,57.50
2023-10-26T02:04:00.731Z,55.67
2023-10-26T02:05:03.218Z,54.50
2023-10-26T02:06:07.424Z,53.33
2023-10-26T02:07:09.749Z,53.00
2023-10-26T02:08:12.962Z,54.83
2023-10-26T02:09:16.668Z,55.33
2023-10-26T02:10:20.181Z,58.00
2023-10-26T02:11:23.346Z,61.33
2023-10-26T02:12:26.119Z,63.00
2023-10-26T02:13:29.414Z,64.67
2023-10-26T02:14:31.603Z,67.00
2023-10-26T02:15:33.844Z,71.83
2023-10-26T02:16:37.073Z,74.67
2023-10-26T02:17:39.291Z,72.67
2023-10-26T02:18:44.265Z,71.00
2023-10-26T02:19:46.655Z,69.67
2023-10-26T02:20:49.943Z,69.00
2023-10-26T02:21:52.188Z,69.00
2023-10-26T02:22:55.395Z,69.00
2023-10-26T02:23:57.624Z,69.00
2023-10-26T02:25:02.235Z,69.00
2023-10-26T02:26:04.807Z,69.67
2023-10-26T02:27:08.049Z,70.00
2023-10-26T02:28:15.034Z,71.00
2023-10-26T02:29:18.297Z,72.50
2023-10-26T02:30:20.549Z,74.33
2023-10-26T02:31:23.825Z,76.00
2023-10-26T02:32:26.165Z,75.50
2023-10-26T02:33:29.449Z,75.00
2023-10-26T02:34:31.678Z,75.83
2023-10-26T02:35:33.934Z,81.67
2023-10-26T02:36:37.119Z,93.83
2023-10-26T02:37:39.644Z,98.17
2023-10-26T02:38:42.806Z,97.67
2023-10-26T02:39:45.127Z,93.67
2023-10-26T02:40:49.619Z,93.83
2023-10-26T02:41:51.919Z,95.00
2023-10-26T02:42:55.072Z,95.00
2023-10-26T02:43:57.307Z,94.17
2023-10-26T02:45:00.784Z,94.00
2023-10-26T02:46:05.831Z,94.50
2023-10-26T02:47:09.114Z,96.00
2023-10-26T02:48:11.357Z,95.33
2023-10-26T02:49:14.669Z,94.83
2023-10-26T02:50:16.988Z,94.00
2023-10-26T02:51:20.261Z,94.17
2023-10-26T02:52:22.534Z,97.17
2023-10-26T02:53:24.726Z,101.67
2023-10-26T02:54:28.604Z,105.83
2023-10-26T02:55:30.883Z,107.67
2023-10-26T02:56:35.446Z,107.83
2023-10-26T02:57:37.608Z,107.00
2023-10-26T02:58:40.755Z,107.50
2023-10-26T02:59:42.914Z,107.33
2023-10-26T03:00:45.133Z,106.33
2023-10-26T03:01:48.249Z,106.00
2023-10-26T03:02:50.530Z,105.00
2023-10-26T03:03:53.822Z,104.17
2023-10-26T03:04:56.071Z,102.17
2023-10-26T03:06:00.746Z,102.67
2023-10-26T03:07:02.934Z,104.00
2023-10-26T03:08:05.536Z,103.67
2023-10-26T03:09:10.351Z,103.00
2023-10-26T03:10:12.617Z,103.00
2023-10-26T03:11:15.787Z,102.17
2023-10-26T03:12:20.449Z,101.33
2023-10-26T03:13:23.677Z,101.33
2023-10-26T03:14:25.936Z,102.33
2023-10-26T03:15:29.241Z,103.00
2023-10-26T03:16:31.606Z,105.67
2023-10-26T03:17:34.868Z,110.67
2023-10-26T03:18:37.488Z,113.17
2023-10-26T03:19:40.662Z,113.50
2023-10-26T03:20:42.894Z,115.83
2023-10-26T03:21:46.073Z,118.00
2023-10-26T03:22:48.271Z,116.67
2023-10-26T03:23:53.861Z,116.00
2023-10-26T03:24:56.062Z,114.83
2023-10-26T03:26:01.130Z,113.17
2023-10-26T03:27:03.454Z,112.17
2023-10-26T03:28:08.045Z,112.00
2023-10-26T03:29:10.258Z,112.33
2023-10-26T03:30:13.920Z,117.83
2023-10-26T03:31:16.229Z,126.17
2023-10-26T03:32:18.456Z,124.67
2023-10-26T03:33:21.728Z,124.50
2023-10-26T03:34:23.974Z,125.00
2023-10-26T03:35:27.185Z,125.67
2023-10-26T03:36:29.378Z,131.00
2023-10-26T03:37:32.758Z,138.50
2023-10-26T03:38:34.914Z,140.50
2023-10-26T03:39:40.759Z,141.17
2023-10-26T03:40:42.937Z,142.00
2023-10-26T03:41:46.153Z,140.67
2023-10-26T03:42:48.318Z,141.83
2023-10-26T03:43:52.863Z,144.67
2023-10-26T03:44:55.149Z,145.83
2023-10-26T03:45:58.335Z,145.33
2023-10-26T03:47:00.834Z,144.00
2023-10-26T03:48:04.407Z,143.00
2023-10-26T03:49:06.667Z,142.50
2023-10-26T03:50:10.183Z,143.67
2023-10-26T03:51:12.418Z,144.00
2023-10-26T03:52:15.658Z,150.83
2023-10-26T03:53:17.904Z,148.83
2023-10-26T03:54:21.141Z,148.00
2023-10-26T03:55:23.557Z,188.00
2023-10-26T03:56:26.697Z,165.50
2023-10-26T03:57:28.880Z,155.50
2023-10-26T03:58:32.079Z,144.17
2023-10-26T03:59:35.579Z,142.00
2023-10-26T04:00:38.727Z,141.17
2023-10-26T04:01:40.983Z,138.67
2023-10-26T04:02:44.206Z,135.00
2023-10-26T04:03:46.424Z,134.00
2023-10-26T04:04:51.741Z,134.67
2023-10-26T04:05:54.052Z,135.00
2023-10-26T04:06:57.249Z,135.67
2023-10-26T04:08:02.207Z,136.00
2023-10-26T04:09:05.412Z,136.00
2023-10-26T04:10:08.925Z,136.00
2023-10-26T04:11:17.911Z,137.00
2023-10-26T04:12:20.148Z,138.83
2023-10-26T04:13:23.503Z,139.83
2023-10-26T04:14:25.758Z,143.17
2023-10-26T04:15:30.489Z,176.67
2023-10-26T04:16:32.823Z,205.17
2023-10-26T04:17:36.107Z,170.83
2023-10-26T04:18:38.442Z,166.33
2023-10-26T04:19:41.734Z,171.83
2023-10-26T04:20:44.050Z,179.00
2023-10-26T04:21:47.250Z,170.83
2023-10-26T04:22:49.458Z,168.17
2023-10-26T04:23:52.585Z,162.17
2023-10-26T04:24:54.724Z,158.33
2023-10-26T04:25:56.956Z,154.50
2023-10-26T04:27:00.669Z,154.00
2023-10-26T04:28:02.906Z,154.83
2023-10-26T04:29:08.226Z,155.00
2023-10-26T04:30:11.135Z,156.67
2023-10-26T04:31:16.608Z,172.67
2023-10-26T04:32:18.873Z,172.00
2023-10-26T04:33:22.143Z,171.17
2023-10-26T04:34:24.306Z,173.83
2023-10-26T04:35:27.543Z,179.00
2023-10-26T04:36:29.748Z,180.00
2023-10-26T04:37:33.065Z,180.83
2023-10-26T04:38:35.502Z,183.17
2023-10-26T04:39:38.850Z,185.33
2023-10-26T04:40:42.723Z,189.83
2023-10-26T04:41:45.992Z,196.33
2023-10-26T04:42:48.187Z,198.50
2023-10-26T04:43:51.346Z,199.50
2023-10-26T04:44:53.549Z,199.00
2023-10-26T04:45:56.733Z,198.17
2023-10-26T04:47:00.350Z,196.33
2023-10-26T04:48:04.476Z,195.67
2023-10-26T04:49:06.813Z,191.17
2023-10-26T04:50:11.318Z,180.17
2023-10-26T04:51:13.654Z,167.50
2023-10-26T04:52:19.597Z,168.00
2023-10-26T04:53:21.772Z,153.67
2023-10-26T04:54:25.344Z,154.00
2023-10-26T04:55:31.665Z,160.33
2023-10-26T04:56:35.120Z,156.33
2023-10-26T04:57:37.571Z,152.00
2023-10-26T04:58:40.715Z,155.83
2023-10-26T04:59:42.846Z,158.67
2023-10-26T05:00:46.023Z,163.67
2023-10-26T05:01:48.336Z,173.33
2023-10-26T05:02:52.898Z,174.00
2023-10-26T05:03:55.089Z,176.50
2023-10-26T05:04:58.212Z,179.67
2023-10-26T05:06:00.538Z,178.33
2023-10-26T05:07:04.016Z,177.50
2023-10-26T05:08:07.211Z,175.67
2023-10-26T05:09:09.507Z,177.00
2023-10-26T05:10:12.837Z,194.83
2023-10-26T05:11:15.792Z,187.83
2023-10-26T05:12:19.074Z,195.00
2023-10-26T05:13:21.283Z,192.33
2023-10-26T05:14:24.456Z,189.50
2023-10-26T05:15:26.920Z,233.83
2023-10-26T05:16:30.191Z,234.00
2023-10-26T05:17:32.420Z,213.33
2023-10-26T05:18:36.014Z,212.83
2023-10-26T05:19:39.326Z,204.67
2023-10-26T05:20:41.521Z,171.33
2023-10-26T05:21:44.690Z,172.33
2023-10-26T05:22:46.965Z,190.33
2023-10-26T05:23:50.165Z,204.83
2023-10-26T05:24:52.477Z,201.33
2023-10-26T05:25:55.724Z,213.33
2023-10-26T05:26:58.241Z,200.50
2023-10-26T05:28:01.831Z,165.00
2023-10-26T05:29:04.562Z,170.67
2023-10-26T05:30:09.141Z,175.00
2023-10-26T05:31:11.396Z,166.67
2023-10-26T05:32:15.005Z,190.67
2023-10-26T05:33:17.344Z,215.00
2023-10-26T05:34:22.525Z,201.17
2023-10-26T05:35:25.009Z,190.00
2023-10-26T05:36:27.257Z,198.67
2023-10-26T05:37:30.500Z,196.17
2023-10-26T05:38:32.720Z,174.00
2023-10-26T05:39:35.906Z,173.17
2023-10-26T05:40:38.166Z,188.17
2023-10-26T05:41:41.244Z,199.00
2023-10-26T05:42:43.494Z,203.83
2023-10-26T05:43:46.628Z,188.00
2023-10-26T05:44:48.951Z,173.00
2023-10-26T05:45:52.467Z,168.67
2023-10-26T05:46:54.685Z,172.00
2023-10-26T05:48:00.808Z,174.67
2023-10-26T05:49:03.004Z,183.67
2023-10-26T05:50:08.876Z,207.50
2023-10-26T05:51:11.049Z,245.33
2023-10-26T05:52:14.237Z,239.00
2023-10-26T05:53:16.831Z,246.83
2023-10-26T05:54:22.969Z,236.67
2023-10-26T05:55:26.037Z,260.17
2023-10-26T05:56:28.180Z,239.00
2023-10-26T05:57:34.439Z,231.83
2023-10-26T05:58:37.591Z,235.17
2023-10-26T05:59:41.334Z,231.83
2023-10-26T06:00:47.756Z,231.50
2023-10-26T06:02:06.617Z,262.50
2023-10-26T06:03:08.894Z,266.83
2023-10-26T06:04:12.291Z,253.83
2023-10-26T06:05:16.518Z,252.83
2023-10-26T06:06:32.340Z,236.00
2023-10-26T06:07:34.592Z,233.33
2023-10-26T06:08:37.846Z,244.17
2023-10-26T06:09:39.966Z,263.50
2023-10-26T06:10:43.244Z,256.50
2023-10-26T06:11:45.410Z,253.67
2023-10-26T06:12:48.578Z,251.17
2023-10-26T06:13:50.746Z,280.67
2023-10-26T06:14:53.834Z,255.00
2023-10-26T06:15:56.066Z,231.67
2023-10-26T06:16:59.308Z,219.50
2023-10-26T06:18:01.646Z,249.33
2023-10-26T06:19:04.826Z,241.17
2023-10-26T06:20:08.955Z,251.50
2023-10-26T06:21:14.385Z,218.33
2023-10-26T06:22:16.694Z,203.00
2023-10-26T06:23:19.847Z,197.67
2023-10-26T06:24:22.171Z,192.00
2023-10-26T06:25:26.778Z,202.33
2023-10-26T06:26:29.274Z,204.83
2023-10-26T06:27:32.584Z,196.17
2023-10-26T06:28:34.818Z,182.00
2023-10-26T06:29:38.103Z,182.00
2023-10-26T06:30:40.615Z,181.83
2023-10-26T06:31:43.908Z,179.50
2023-10-26T06:32:46.214Z,177.67
2023-10-26T06:33:49.516Z,177.17
2023-10-26T06:34:51.979Z,169.83
2023-10-26T06:35:55.254Z,148.83
2023-10-26T06:36:58.831Z,128.83
2023-10-26T06:38:01.998Z,132.17
2023-10-26T06:39:04.331Z,117.50
2023-10-26T06:40:08.279Z,110.83
2023-10-26T06:41:11.870Z,104.00
2023-10-26T06:42:14.135Z,99.83
2023-10-26T06:43:17.723Z,100.50
2023-10-26T06:44:20.022Z,98.33
2023-10-26T06:45:23.469Z,68.33
2023-10-26T06:46:25.917Z,64.50
2023-10-26T06:47:29.264Z,56.00
2023-10-26T06:48:31.934Z,47.50
2023-10-26T06:49:35.271Z,46.50
2023-10-26T06:50:37.546Z,49.83
2023-10-26T06:51:40.785Z,55.33
2023-10-26T06:52:45.037Z,55.00
2023-10-26T06:53:48.292Z,58.33
2023-10-26T06:54:50.624Z,53.00
2023-10-26T06:55:53.086Z,49.33
2023-10-26T06:56:57.898Z,52.00
2023-10-26T06:58:00.422Z,67.00
2023-10-26T06:59:03.662Z,122.33
2023-10-26T07:00:08.059Z,97.50
2023-10-26T07:01:19.612Z,140.67
2023-10-26T07:02:23.543Z,117.00
2023-10-26T07:03:26.877Z,103.17
2023-10-26T07:04:29.206Z,96.67
2023-10-26T07:05:32.899Z,134.67
2023-10-26T07:06:35.215Z,144.00
2023-10-26T07:07:38.684Z,124.50
2023-10-26T07:08:42.547Z,111.83
2023-10-26T07:09:45.757Z,85.33
2023-10-26T07:10:48.070Z,51.33
2023-10-26T07:11:51.274Z,40.50
2023-10-26T07:12:53.574Z,34.83
2023-10-26T07:13:56.774Z,33.50
2023-10-26T07:15:00.847Z,26.50
2023-10-26T07:16:05.277Z,23.17
2023-10-26T07:17:07.650Z,24.50
2023-10-26T07:18:10.973Z,27.00
2023-10-26T07:19:13.489Z,30.83
2023-10-26T07:20:16.618Z,27.17
2023-10-26T07:21:20.400Z,27.17
2023-10-26T07:22:23.253Z,26.17
2023-10-26T07:23:27.107Z,24.00
2023-10-26T07:24:31.989Z,77.33
2023-10-26T07:25:37.077Z,330.00
2023-10-26T07:26:39.358Z,317.17
2023-10-26T07:27:42.732Z,300.83
2023-10-26T07:28:44.995Z,336.33
2023-10-26T07:29:48.690Z,334.83
2023-10-26T07:30:52.159Z,261.33
2023-10-26T07:31:56.079Z,248.00
2023-10-26T07:32:58.393Z,199.50
2023-10-26T07:34:01.710Z,189.83
2023-10-26T07:35:04.279Z,89.50
2023-10-26T07:36:09.593Z,61.50
2023-10-26T07:37:11.867Z,107.67
2023-10-26T07:38:35.510Z,138.33
2023-10-26T07:39:46.782Z,110.83
2023-10-26T07:40:51.962Z,94.33
2023-10-26T07:42:06.715Z,129.00
2023-10-26T07:43:12.580Z,93.00
2023-10-26T07:44:14.851Z,60.17
2023-10-26T07:45:18.309Z,59.67
2023-10-26T07:46:21.222Z,58.00
2023-10-26T07:47:25.396Z,51.00
2023-10-26T07:48:27.793Z,72.17
2023-10-26T07:49:31.323Z,90.00
2023-10-26T07:50:33.918Z,100.50
2023-10-26T07:51:36.170Z,132.67
2023-10-26T07:52:39.415Z,181.67
2023-10-26T07:53:41.671Z,140.17
2023-10-26T07:54:46.839Z,112.83
2023-10-26T07:55:49.224Z,129.00
2023-10-26T07:56:52.710Z,109.50
2023-10-26T07:57:55.220Z,53.67
2023-10-26T07:58:59.080Z,37.17
2023-10-26T08:00:02.267Z,39.83
2023-10-26T08:01:10.472Z,49.17
2023-10-26T08:02:12.862Z,34.17
2023-10-26T08:03:16.108Z,29.50
2023-10-26T08:04:18.327Z,30.67
2023-10-26T08:05:21.779Z,35.67
2023-10-26T08:06:25.236Z,44.67
2023-10-26T08:07:30.603Z,39.67
2023-10-26T08:08:33.047Z,36.17
2023-10-26T08:09:36.738Z,38.00
2023-10-26T08:10:40.318Z,42.50
2023-10-26T08:11:43.531Z,41.00
2023-10-26T08:12:45.785Z,41.50
2023-10-26T08:13:48.934Z,35.33
2023-10-26T08:16:06.183Z,24.83
2023-10-26T08:16:42.063Z,21.83
2023-10-26T08:17:43.695Z,21.50
2023-10-26T08:18:47.055Z,22.33
2023-10-26T08:19:53.122Z,22.50
2023-10-26T08:20:56.542Z,23.00
2023-10-26T08:21:58.845Z,22.17
2023-10-26T08:23:04.076Z,19.67
2023-10-26T08:24:06.908Z,16.67
2023-10-26T08:25:10.803Z,15.33
2023-10-26T08:26:14.253Z,16.50
2023-10-26T08:27:17.516Z,18.33
2023-10-26T08:28:19.689Z,19.00
2023-10-26T08:29:28.208Z,19.83
2023-10-26T08:30:31.279Z,21.00
2023-10-26T08:31:36.694Z,22.00
2023-10-26T08:32:39.023Z,22.33
2023-10-26T08:33:42.360Z,23.00
2023-10-26T08:34:45.997Z,23.00
2023-10-26T08:35:52.544Z,23.00
2023-10-26T08:37:11.437Z,23.67
2023-10-26T08:38:16.554Z,24.83
2023-10-26T08:39:19.181Z,26.00
2023-10-26T08:40:22.623Z,26.67
2023-10-26T08:41:26.211Z,26.83
2023-10-26T08:42:29.410Z,25.83
2023-10-26T08:43:34.828Z,24.83
2023-10-26T08:44:39.125Z,23.17
2023-10-26T08:45:42.880Z,21.33
2023-10-26T08:46:46.865Z,20.50
2023-10-26T08:47:50.300Z,95.83
2023-10-26T08:48:56.823Z,297.17
2023-10-26T08:50:15.670Z,216.33
2023-10-26T08:51:20.264Z,92.67
2023-10-26T08:52:23.565Z,53.83
2023-10-26T08:53:26.959Z,49.00
2023-10-26T08:54:29.207Z,100.67
2023-10-26T08:55:32.788Z,91.33
2023-10-26T08:56:36.413Z,64.00
2023-10-26T08:57:48.169Z,46.33
2023-10-26T08:58:53.137Z,150.83
2023-10-26T08:59:56.387Z,135.50
2023-10-26T09:00:59.167Z,96.33
2023-10-26T09:02:02.497Z,51.67
2023-10-26T09:03:07.323Z,40.50
2023-10-26T09:04:11.616Z,37.50
2023-10-26T09:05:14.316Z,37.67
2023-10-26T09:06:17.576Z,35.33
2023-10-26T09:07:26.781Z,36.00
2023-10-26T09:08:32.630Z,36.50
2023-10-26T09:09:44.939Z,36.50
2023-10-26T09:10:48.168Z,36.17
2023-10-26T09:11:51.910Z,39.17
2023-10-26T09:13:01.484Z,39.83
2023-10-26T09:14:16.657Z,34.17
2023-10-26T09:15:19.896Z,27.67
2023-10-26T09:16:36.144Z,26.83
2023-10-26T09:17:39.549Z,28.00
2023-10-26T09:18:49.659Z,28.83
2023-10-26T09:19:51.894Z,31.00
2023-10-26T09:21:06.108Z,31.00
2023-10-26T09:22:10.248Z,31.00
2023-10-26T09:23:28.694Z,30.00
2023-10-26T09:24:31.193Z,26.67
2023-10-26T09:25:34.393Z,25.00
2023-10-26T09:26:40.280Z,23.50
2023-10-26T09:27:47.050Z,23.00
2023-10-26T09:28:53.753Z,23.00
2023-10-26T09:29:57.010Z,23.33
2023-10-26T09:31:01.086Z,24.00
2023-10-26T09:32:04.495Z,24.67
2023-10-26T09:33:22.798Z,26.67
2023-10-26T09:34:26.027Z,28.00
2023-10-26T09:35:29.836Z,28.83
2023-10-26T09:36:32.165Z,29.00
2023-10-26T09:37:51.708Z,31.67
2023-10-26T09:38:54.904Z,43.83
2023-10-26T09:40:14.732Z,57.17
2023-10-26T09:41:20.346Z,55.00
2023-10-26T09:42:26.058Z,80.50
2023-10-26T09:43:29.828Z,68.00
2023-10-26T09:44:32.553Z,60.33
2023-10-26T09:45:35.832Z,68.33
2023-10-26T09:46:38.535Z,106.00
2023-10-26T09:47:42.365Z,85.50
2023-10-26T09:48:45.166Z,78.00
2023-10-26T09:49:49.680Z,79.67
2023-10-26T09:50:53.722Z,81.00
2023-10-26T09:51:57.100Z,76.83
2023-10-26T09:53:00.425Z,74.50
2023-10-26T09:54:05.474Z,86.33
2023-10-26T09:55:10.079Z,81.50
2023-10-26T09:56:19.259Z,77.50
2023-10-26T09:57:28.710Z,74.17
2023-10-26T09:58:40.058Z,72.83
2023-10-26T09:59:42.905Z,70.00
2023-10-26T10:00:46.143Z,62.83
2023-10-26T10:01:48.487Z,53.83
2023-10-26T10:03:13.185Z,50.33
2023-10-26T10:04:15.628Z,50.67
2023-10-26T10:05:43.117Z,49.17
2023-10-26T10:06:51.220Z,50.00
2023-10-26T10:07:54.569Z,49.67
2023-10-26T10:09:00.887Z,46.17
2023-10-26T10:10:07.550Z,42.33
2023-10-26T10:11:18.554Z,41.67
2023-10-26T10:12:34.179Z,40.50
2023-10-26T10:13:41.840Z,41.17
2023-10-26T10:15:15.616Z,42.67
2023-10-26T10:16:54.029Z,47.67
2023-10-26T10:18:06.374Z,47.50
2023-10-26T10:19:19.484Z,45.67
2023-10-26T10:20:28.955Z,43.33
2023-10-26T10:21:36.941Z,43.17
2023-10-26T10:22:48.714Z,45.67
2023-10-26T10:23:51.931Z,47.00
2023-10-26T10:24:54.678Z,47.00
2023-10-26T10:26:05.723Z,47.00
2023-10-26T10:27:17.183Z,47.00
2023-10-26T10:28:19.945Z,47.33
2023-10-26T10:29:24.460Z,48.17
2023-10-26T10:30:30.030Z,162.67
2023-10-26T10:31:43.742Z,143.83
2023-10-26T10:32:50.341Z,96.83
2023-10-26T10:34:12.038Z,89.17
2023-10-26T10:35:25.528Z,86.67
2023-10-26T10:36:28.833Z,87.17
2023-10-26T10:37:31.179Z,141.00
2023-10-26T10:38:34.706Z,260.83
2023-10-26T10:39:36.970Z,176.00
2023-10-26T10:40:40.766Z,186.83
2023-10-26T10:41:43.518Z,239.67
2023-10-26T10:42:49.525Z,326.17
2023-10-26T10:43:52.960Z,204.33
2023-10-26T10:44:57.774Z,157.33
2023-10-26T10:46:12.060Z,123.50
2023-10-26T10:47:14.336Z,225.83
2023-10-26T10:48:17.537Z,217.33
2023-10-26T10:49:25.069Z,181.50
2023-10-26T10:50:31.132Z,152.00
2023-10-26T10:51:35.103Z,142.00
2023-10-26T10:52:38.397Z,122.83
2023-10-26T10:53:40.899Z,117.33
2023-10-26T10:54:59.686Z,131.50
2023-10-26T10:56:05.579Z,114.17
2023-10-26T10:57:09.076Z,97.67
2023-10-26T10:58:11.445Z,99.17
2023-10-26T10:59:21.994Z,104.33
2023-10-26T11:00:26.518Z,99.83
2023-10-26T11:01:31.171Z,106.33
2023-10-26T11:02:33.593Z,110.17
2023-10-26T11:03:36.990Z,106.83
2023-10-26T11:04:59.596Z,110.33
2023-10-26T11:06:06.716Z,117.33
2023-10-26T11:07:08.978Z,101.83
2023-10-26T11:08:12.278Z,90.33
2023-10-26T11:09:26.002Z,89.50
2023-10-26T11:10:29.269Z,109.83
2023-10-26T11:11:32.808Z,114.50
2023-10-26T11:12:36.187Z,131.50
2023-10-26T11:13:38.663Z,124.50
2023-10-26T11:14:50.642Z,91.83
2023-10-26T11:15:54.584Z,71.33
2023-10-26T11:16:58.146Z,90.67
2023-10-26T11:18:01.153Z,102.50
2023-10-26T11:19:05.525Z,98.33
2023-10-26T11:20:34.946Z,93.00
2023-10-26T11:21:38.289Z,87.50
2023-10-26T11:22:40.556Z,129.17
2023-10-26T11:23:43.917Z,122.83
2023-10-26T11:24:46.984Z,112.33
2023-10-26T11:25:50.446Z,114.00
2023-10-26T11:27:09.510Z,140.17
2023-10-26T11:28:12.958Z,124.67
2023-10-26T11:29:18.500Z,112.67
2023-10-26T11:30:21.977Z,81.83
2023-10-26T11:31:42.826Z,77.50
2023-10-26T11:32:46.495Z,125.00
2023-10-26T11:33:48.749Z,224.17
2023-10-26T11:35:06.602Z,223.00
2023-10-26T11:36:10.541Z,228.83
2023-10-26T11:37:16.600Z,227.50
2023-10-26T11:38:18.980Z,187.33
2023-10-26T11:39:22.362Z,210.33
2023-10-26T11:40:30.918Z,188.83
2023-10-26T11:41:35.378Z,152.17
2023-10-26T11:42:51.546Z,128.17
2023-10-26T11:43:55.045Z,97.50
2023-10-26T11:45:00.371Z,87.67
2023-10-26T11:46:05.105Z,91.00
2023-10-26T11:47:08.989Z,89.33
2023-10-26T11:48:12.123Z,78.67
2023-10-26T11:49:14.540Z,75.17
2023-10-26T11:50:22.217Z,79.67
2023-10-26T11:51:24.952Z,88.17
2023-10-26T11:52:28.184Z,85.50
2023-10-26T11:53:30.528Z,79.50
2023-10-26T11:54:34.106Z,60.17
2023-10-26T11:55:36.347Z,57.67
2023-10-26T11:56:39.560Z,47.17
2023-10-26T11:57:41.975Z,53.00
2023-10-26T11:58:45.207Z,49.83
2023-10-26T11:59:47.557Z,41.50
2023-10-26T12:00:50.977Z,39.50
2023-10-26T12:01:53.802Z,35.83
2023-10-26T12:02:59.694Z,34.00
2023-10-26T12:04:02.071Z,41.00
2023-10-26T12:05:05.206Z,48.00
2023-10-26T12:06:08.928Z,45.83
2023-10-26T12:07:11.150Z,36.83
2023-10-26T12:08:14.345Z,84.17
2023-10-26T12:09:16.672Z,106.17
2023-10-26T12:10:22.163Z,87.50
2023-10-26T12:11:24.832Z,77.67
2023-10-26T12:12:28.214Z,59.33
2023-10-26T12:13:30.509Z,45.17
2023-10-26T12:14:33.817Z,53.67
2023-10-26T12:15:37.441Z,57.67
2023-10-26T12:16:41.561Z,95.33
2023-10-26T12:17:46.291Z,154.00
2023-10-26T12:18:49.983Z,146.50
2023-10-26T12:19:53.265Z,112.67
2023-10-26T12:20:55.493Z,77.17
2023-10-26T12:21:59.213Z,58.50
2023-10-26T12:23:01.583Z,141.50
2023-10-26T12:24:05.136Z,107.17
2023-10-26T12:25:09.055Z,62.00
2023-10-26T12:26:12.438Z,143.50
2023-10-26T12:27:17.566Z,412.00
2023-10-26T12:28:25.682Z,411.33
2023-10-26T12:29:30.231Z,436.17
2023-10-26T12:30:34.148Z,419.33
2023-10-26T12:31:36.573Z,405.17
2023-10-26T12:32:39.830Z,445.67
2023-10-26T12:33:42.643Z,416.00
2023-10-26T12:34:47.337Z,473.67
2023-10-26T12:35:50.302Z,463.00
2023-10-26T12:36:53.732Z,394.33
2023-10-26T12:37:56.576Z,276.00
2023-10-26T12:38:59.772Z,247.50
2023-10-26T12:40:02.004Z,401.83
2023-10-26T12:41:05.597Z,434.00
2023-10-26T12:42:07.875Z,429.67
2023-10-26T12:43:11.070Z,441.50
2023-10-26T12:44:13.794Z,451.00
2023-10-26T12:45:18.514Z,431.33
2023-10-26T12:46:22.106Z,432.00
2023-10-26T12:47:24.302Z,465.33
2023-10-26T12:48:27.564Z,434.67
2023-10-26T12:49:29.767Z,425.50
2023-10-26T12:50:33.822Z,419.83
2023-10-26T12:51:39.346Z,439.00
2023-10-26T12:52:42.775Z,429.67
2023-10-26T12:53:46.054Z,300.33
2023-10-26T12:54:48.284Z,341.00
2023-10-26T12:55:51.515Z,411.83
2023-10-26T12:56:53.812Z,332.17
2023-10-26T12:57:58.748Z,365.00
2023-10-26T12:59:01.579Z,389.33
2023-10-26T13:00:05.356Z,327.67
2023-10-26T13:01:07.779Z,280.50
2023-10-26T13:02:11.050Z,326.33
2023-10-26T13:03:13.291Z,340.00
2023-10-26T13:04:16.748Z,372.00
2023-10-26T13:05:19.183Z,350.83
2023-10-26T13:06:23.752Z,302.00
2023-10-26T13:07:28.319Z,230.00
2023-10-26T13:08:31.598Z,150.50
2023-10-26T13:09:33.914Z,75.83
2023-10-26T13:10:37.245Z,39.17
2023-10-26T13:11:39.568Z,26.33
2023-10-26T13:12:43.267Z,23.50
2023-10-26T13:13:45.797Z,24.50
2023-10-26T13:14:51.175Z,26.00
2023-10-26T13:16:00.218Z,26.33
2023-10-26T13:17:02.504Z,25.67
2023-10-26T13:18:05.773Z,30.67
2023-10-26T13:19:08.105Z,31.17
2023-10-26T13:20:12.704Z,40.33
2023-10-26T13:21:15.072Z,40.33
2023-10-26T13:22:19.723Z,26.00
2023-10-26T13:23:21.957Z,18.67
2023-10-26T13:24:25.147Z,14.83
2023-10-26T13:25:27.506Z,10.17
2023-10-26T13:26:30.791Z,7.67
2023-10-26T13:27:33.028Z,7.33
2023-10-26T13:28:36.291Z,8.00
2023-10-26T13:29:38.599Z,9.50
2023-10-26T13:30:41.879Z,8.50
2023-10-26T13:31:44.082Z,6.00
2023-10-26T13:32:47.367Z,6.00
2023-10-26T13:33:49.711Z,9.17
2023-10-26T13:34:52.969Z,11.67
2023-10-26T13:35:55.158Z,12.00